FSIA/SEZ METAR and TAF weather

Enter ICAO airport designator
Station Type Date Time Source
FSIA METAR 2019/06/17 13:00 UTC NOAA

FSIA 171300Z VRB05KT 9999 SCT020 29/25 Q1011 NOSIG


Station Type Date Time Source
FSIA Decoded METAR 2019/06/17 13:00 UTC NOAA

Seychelles Inter-National Airport, Seychelles (FSIA) 04-40S 055-31E 3M
Jun 17, 2019 - 09:00 AM EDT / 2019.06.17 1300 UTC
Wind: Variable at 6 MPH (5 KT):0
Visibility: greater than 7 mile(s):0
Sky conditions: partly cloudy
Temperature: 84 F (29 C)
Dew Point: 77 F (25 C)
Relative Humidity: 79%
Pressure (altimeter): 29.85 in. Hg (1011 hPa)
ob: FSIA 171300Z VRB05KT 9999 SCT020 29/25 Q1011 NOSIG
cycle: 13

Station Type Date Time Source
FSIA TAF 2019/06/17 12:12 UTC NOAA

TAF FSIA 171101Z 1712/1812 12011KT 9999 SCT021 PROB40
TEMPO 1718/1724 -SHRA FEW018CB SCT020

Example: see airport list